Ogden Hinckley Airport
KOGD : rendu visible

Aérodrome :











RETROUVEZ-NOUS SUR...

 
LOGIN :

S'inscrire | Disclaimer

   EN    FR    IT 

 









Légende :    VFR   VFR Marginal   IFR   IFR Intensif   IFR Très Intensif
Visi : 
Plafond : 
>= 8 km
>= 3000ft
5 à 8 km
1000 à 3000 ft
1500m à 5 km
500 à 1000 ft
800 à 1500m
200 à 500 ft
< 800m
< 200 ft
Symboles :   Orages  Brouillard  Fortes neiges  Fortes précipitations  Vent > 20 kt






- Altitude de l'aérodrome : 4473 ft


KOGD - Ogden Hinckley

DERNIER METAR :
  • 042053Z 34005KT 10SM CLR 30/M02 A2996 RMK AO2 SLP085 6//// T03001022 58013 PNO $

METARs EXPIRÉS :
  • 041953Z 24007KT 10SM CLR 31/M03 A2998 RMK AO2 SLP087 T03111033 $
  • 041853Z VRB03KT 10SM CLR 30/M01 A2999 RMK AO2 SLP092 T03001006

TAF KOGD
Valide du 04 à 18h jusqu'au 05 à 18h UTC


041738Z 0418/0518 25010KT P6SM FEW120
FM050300 14006KT P6SM FEW120
FM051200 17008KT P6SM SCT150
FIR KZLC / Amérique du Nord



MET'MAP, la Météo Aéronautique d'un coup d'oeil ! - Copyright ORBIFLY Décembre 2007 - Disclaimer

ORBIFLY MET'MAP TEAM :

Programmation & Développement : Alexandra Zaïnal
Sur une idée originale de : Baudouin d'Aumeries
Assistance à la programmation : Marc-Olivier Méhu
Soutien technique & logistique : Manuel Goepfert

Contact : metmap@orbifly.com




SOURCES & CREDITS :

   NOAA       Earth
Advisory